sensor_id;sensor_type;location;lat;lon;timestamp;P1;durP1;ratioP1;P2;durP2;ratioP2
62990;SDS011;49084;48.204;16.202;2023-01-08T00:00:46;86.63;;;34.22;;
62990;SDS011;49084;48.204;16.202;2023-01-08T00:03:12;105.30;;;35.63;;
62990;SDS011;49084;48.204;16.202;2023-01-08T00:05:38;116.93;;;34.65;;
62990;SDS011;49084;48.204;16.202;2023-01-08T00:08:22;77.50;;;33.67;;
62990;SDS011;49084;48.204;16.202;2023-01-08T00:10:52;118.57;;;34.53;;
62990;SDS011;49084;48.204;16.202;2023-01-08T00:13:19;106.68;;;33.55;;
62990;SDS011;49084;48.204;16.202;2023-01-08T00:15:45;98.78;;;33.08;;
62990;SDS011;49084;48.204;16.202;2023-01-08T00:18:14;94.30;;;33.80;;
62990;SDS011;49084;48.204;16.202;2023-01-08T00:20:43;113.53;;;33.80;;
62990;SDS011;49084;48.204;16.202;2023-01-08T00:23:13;171.45;;;36.70;;
62990;SDS011;49084;48.204;16.202;2023-01-08T00:25:39;87.85;;;34.53;;
62990;SDS011;49084;48.204;16.202;2023-01-08T00:34:59;106.90;;;32.63;;
62990;SDS011;49084;48.204;16.202;2023-01-08T00:41:02;136.95;;;36.85;;
62990;SDS011;49084;48.204;16.202;2023-01-08T01:16:20;81.50;;;30.25;;
62990;SDS011;49084;48.204;16.202;2023-01-08T01:18:46;80.68;;;31.10;;
62990;SDS011;49084;48.204;16.202;2023-01-08T01:21:15;101.05;;;29.40;;
62990;SDS011;49084;48.204;16.202;2023-01-08T01:27:20;187.55;;;34.55;;
62990;SDS011;49084;48.204;16.202;2023-01-08T01:29:46;124.72;;;31.92;;
62990;SDS011;49084;48.204;16.202;2023-01-08T01:35:34;157.38;;;33.13;;
62990;SDS011;49084;48.204;16.202;2023-01-08T01:38:00;195.40;;;35.97;;
62990;SDS011;49084;48.204;16.202;2023-01-08T01:40:26;153.18;;;33.65;;
62990;SDS011;49084;48.204;16.202;2023-01-08T01:42:51;137.70;;;35.88;;
62990;SDS011;49084;48.204;16.202;2023-01-08T01:45:18;177.85;;;36.92;;
62990;SDS011;49084;48.204;16.202;2023-01-08T01:47:46;162.10;;;33.80;;
62990;SDS011;49084;48.204;16.202;2023-01-08T01:50:25;114.20;;;34.33;;
62990;SDS011;49084;48.204;16.202;2023-01-08T01:55:30;127.88;;;34.25;;
62990;SDS011;49084;48.204;16.202;2023-01-08T01:58:03;107.35;;;33.25;;
62990;SDS011;49084;48.204;16.202;2023-01-08T02:00:31;112.05;;;34.10;;
62990;SDS011;49084;48.204;16.202;2023-01-08T02:02:57;127.47;;;33.50;;
62990;SDS011;49084;48.204;16.202;2023-01-08T02:05:26;147.30;;;35.88;;
62990;SDS011;49084;48.204;16.202;2023-01-08T02:08:06;147.75;;;34.72;;
62990;SDS011;49084;48.204;16.202;2023-01-08T02:11:14;150.55;;;36.90;;
62990;SDS011;49084;48.204;16.202;2023-01-08T02:13:49;176.32;;;38.92;;
62990;SDS011;49084;48.204;16.202;2023-01-08T02:19:56;117.55;;;35.25;;
62990;SDS011;49084;48.204;16.202;2023-01-08T02:28:30;161.98;;;40.42;;
62990;SDS011;49084;48.204;16.202;2023-01-08T02:30:58;113.15;;;39.38;;
62990;SDS011;49084;48.204;16.202;2023-01-08T02:33:26;142.35;;;38.53;;
62990;SDS011;49084;48.204;16.202;2023-01-08T02:35:54;166.00;;;37.67;;
62990;SDS011;49084;48.204;16.202;2023-01-08T02:41:56;135.05;;;38.58;;
62990;SDS011;49084;48.204;16.202;2023-01-08T02:44:36;136.35;;;38.97;;
62990;SDS011;49084;48.204;16.202;2023-01-08T02:47:21;131.85;;;37.22;;
62990;SDS011;49084;48.204;16.202;2023-01-08T02:50:05;122.80;;;40.13;;
62990;SDS011;49084;48.204;16.202;2023-01-08T02:52:44;109.25;;;36.58;;
62990;SDS011;49084;48.204;16.202;2023-01-08T02:55:19;155.02;;;40.60;;
62990;SDS011;49084;48.204;16.202;2023-01-08T02:57:47;91.35;;;27.33;;
62990;SDS011;49084;48.204;16.202;2023-01-08T03:00:14;113.82;;;37.55;;
62990;SDS011;49084;48.204;16.202;2023-01-08T03:02:40;117.97;;;38.38;;
62990;SDS011;49084;48.204;16.202;2023-01-08T03:05:10;120.28;;;38.58;;
62990;SDS011;49084;48.204;16.202;2023-01-08T03:07:43;111.03;;;38.67;;
62990;SDS011;49084;48.204;16.202;2023-01-08T03:10:09;102.38;;;34.53;;
62990;SDS011;49084;48.204;16.202;2023-01-08T03:15:09;100.35;;;36.63;;
62990;SDS011;49084;48.204;16.202;2023-01-08T03:20:42;133.63;;;36.42;;
62990;SDS011;49084;48.204;16.202;2023-01-08T03:23:11;93.22;;;35.50;;
62990;SDS011;49084;48.204;16.202;2023-01-08T03:25:38;138.43;;;38.63;;
62990;SDS011;49084;48.204;16.202;2023-01-08T03:28:07;107.03;;;35.75;;
62990;SDS011;49084;48.204;16.202;2023-01-08T03:30:40;135.52;;;37.22;;
62990;SDS011;49084;48.204;16.202;2023-01-08T03:33:08;125.78;;;36.22;;
62990;SDS011;49084;48.204;16.202;2023-01-08T03:35:36;132.60;;;36.53;;
62990;SDS011;49084;48.204;16.202;2023-01-08T03:40:58;145.48;;;39.60;;
62990;SDS011;49084;48.204;16.202;2023-01-08T03:43:28;143.40;;;40.20;;
62990;SDS011;49084;48.204;16.202;2023-01-08T03:45:55;134.35;;;39.53;;
62990;SDS011;49084;48.204;16.202;2023-01-08T03:48:24;158.65;;;39.95;;
62990;SDS011;49084;48.204;16.202;2023-01-08T03:50:51;126.65;;;40.55;;
62990;SDS011;49084;48.204;16.202;2023-01-08T03:53:16;117.00;;;38.78;;
62990;SDS011;49084;48.204;16.202;2023-01-08T03:55:42;151.18;;;43.03;;
62990;SDS011;49084;48.204;16.202;2023-01-08T03:58:08;184.82;;;41.55;;
62990;SDS011;49084;48.204;16.202;2023-01-08T04:00:34;159.75;;;42.10;;
62990;SDS011;49084;48.204;16.202;2023-01-08T04:02:59;126.15;;;41.83;;
62990;SDS011;49084;48.204;16.202;2023-01-08T04:05:25;123.78;;;40.15;;
62990;SDS011;49084;48.204;16.202;2023-01-08T04:07:53;121.40;;;39.35;;
62990;SDS011;49084;48.204;16.202;2023-01-08T04:10:20;137.25;;;42.33;;
62990;SDS011;49084;48.204;16.202;2023-01-08T04:12:46;124.55;;;39.90;;
62990;SDS011;49084;48.204;16.202;2023-01-08T04:15:12;126.35;;;39.42;;
62990;SDS011;49084;48.204;16.202;2023-01-08T04:17:37;126.25;;;39.70;;
62990;SDS011;49084;48.204;16.202;2023-01-08T04:20:03;124.35;;;41.28;;
62990;SDS011;49084;48.204;16.202;2023-01-08T04:22:29;125.75;;;39.97;;
62990;SDS011;49084;48.204;16.202;2023-01-08T04:24:55;124.15;;;38.13;;
62990;SDS011;49084;48.204;16.202;2023-01-08T04:27:21;142.80;;;39.67;;
62990;SDS011;49084;48.204;16.202;2023-01-08T04:29:46;116.07;;;37.97;;
62990;SDS011;49084;48.204;16.202;2023-01-08T04:32:12;130.23;;;39.03;;
62990;SDS011;49084;48.204;16.202;2023-01-08T04:34:38;118.03;;;39.80;;
62990;SDS011;49084;48.204;16.202;2023-01-08T04:37:03;109.30;;;39.35;;
62990;SDS011;49084;48.204;16.202;2023-01-08T04:39:29;125.70;;;37.97;;
62990;SDS011;49084;48.204;16.202;2023-01-08T04:41:55;119.88;;;39.83;;
62990;SDS011;49084;48.204;16.202;2023-01-08T04:44:20;120.53;;;38.22;;
62990;SDS011;49084;48.204;16.202;2023-01-08T04:46:46;106.75;;;39.63;;
62990;SDS011;49084;48.204;16.202;2023-01-08T04:49:12;120.28;;;40.55;;
62990;SDS011;49084;48.204;16.202;2023-01-08T04:51:37;115.85;;;36.63;;
62990;SDS011;49084;48.204;16.202;2023-01-08T04:54:03;119.93;;;38.72;;
62990;SDS011;49084;48.204;16.202;2023-01-08T04:56:29;117.88;;;38.40;;
62990;SDS011;49084;48.204;16.202;2023-01-08T04:58:55;110.55;;;35.90;;
62990;SDS011;49084;48.204;16.202;2023-01-08T05:01:22;121.95;;;36.42;;
62990;SDS011;49084;48.204;16.202;2023-01-08T05:03:55;108.03;;;36.08;;
62990;SDS011;49084;48.204;16.202;2023-01-08T05:06:27;113.55;;;33.85;;
62990;SDS011;49084;48.204;16.202;2023-01-08T05:08:54;119.75;;;35.35;;
62990;SDS011;49084;48.204;16.202;2023-01-08T05:11:20;106.10;;;35.20;;
62990;SDS011;49084;48.204;16.202;2023-01-08T05:13:47;100.82;;;34.08;;
62990;SDS011;49084;48.204;16.202;2023-01-08T05:16:14;98.15;;;32.72;;
62990;SDS011;49084;48.204;16.202;2023-01-08T05:18:40;94.72;;;33.05;;
62990;SDS011;49084;48.204;16.202;2023-01-08T05:21:05;104.85;;;33.55;;
62990;SDS011;49084;48.204;16.202;2023-01-08T05:23:31;87.85;;;31.52;;
62990;SDS011;49084;48.204;16.202;2023-01-08T05:25:58;79.93;;;30.70;;
62990;SDS011;49084;48.204;16.202;2023-01-08T05:28:25;98.07;;;32.22;;
62990;SDS011;49084;48.204;16.202;2023-01-08T05:30:52;100.88;;;34.28;;
62990;SDS011;49084;48.204;16.202;2023-01-08T05:33:18;98.88;;;33.35;;
62990;SDS011;49084;48.204;16.202;2023-01-08T05:35:44;137.35;;;32.85;;
62990;SDS011;49084;48.204;16.202;2023-01-08T05:38:10;96.75;;;34.63;;
62990;SDS011;49084;48.204;16.202;2023-01-08T05:40:36;118.63;;;33.65;;
62990;SDS011;49084;48.204;16.202;2023-01-08T05:43:01;100.75;;;33.67;;
62990;SDS011;49084;48.204;16.202;2023-01-08T05:45:29;100.43;;;34.00;;
62990;SDS011;49084;48.204;16.202;2023-01-08T05:47:56;111.13;;;32.25;;
62990;SDS011;49084;48.204;16.202;2023-01-08T05:50:21;100.55;;;34.65;;
62990;SDS011;49084;48.204;16.202;2023-01-08T05:52:47;100.85;;;31.77;;
62990;SDS011;49084;48.204;16.202;2023-01-08T05:55:16;88.90;;;33.03;;
62990;SDS011;49084;48.204;16.202;2023-01-08T05:57:41;91.13;;;31.40;;
62990;SDS011;49084;48.204;16.202;2023-01-08T06:00:08;92.43;;;32.53;;
62990;SDS011;49084;48.204;16.202;2023-01-08T06:02:34;113.95;;;34.03;;
62990;SDS011;49084;48.204;16.202;2023-01-08T06:05:00;97.55;;;32.53;;
62990;SDS011;49084;48.204;16.202;2023-01-08T06:07:27;102.03;;;33.85;;
62990;SDS011;49084;48.204;16.202;2023-01-08T06:09:53;93.40;;;31.52;;
62990;SDS011;49084;48.204;16.202;2023-01-08T06:12:19;95.10;;;34.22;;
62990;SDS011;49084;48.204;16.202;2023-01-08T06:14:44;95.68;;;34.22;;
62990;SDS011;49084;48.204;16.202;2023-01-08T06:17:10;104.55;;;33.25;;
62990;SDS011;49084;48.204;16.202;2023-01-08T06:19:43;92.65;;;33.30;;
62990;SDS011;49084;48.204;16.202;2023-01-08T06:22:11;107.15;;;35.00;;
62990;SDS011;49084;48.204;16.202;2023-01-08T06:24:37;97.85;;;34.97;;
62990;SDS011;49084;48.204;16.202;2023-01-08T06:27:02;105.10;;;34.67;;
62990;SDS011;49084;48.204;16.202;2023-01-08T06:29:28;116.05;;;33.50;;
62990;SDS011;49084;48.204;16.202;2023-01-08T06:31:53;105.05;;;33.30;;
62990;SDS011;49084;48.204;16.202;2023-01-08T06:34:19;110.50;;;35.50;;
62990;SDS011;49084;48.204;16.202;2023-01-08T06:36:45;110.50;;;35.05;;
62990;SDS011;49084;48.204;16.202;2023-01-08T06:39:11;111.45;;;35.13;;
62990;SDS011;49084;48.204;16.202;2023-01-08T06:41:37;104.05;;;32.63;;
62990;SDS011;49084;48.204;16.202;2023-01-08T06:44:03;115.30;;;34.42;;
62990;SDS011;49084;48.204;16.202;2023-01-08T06:46:29;115.63;;;36.03;;
62990;SDS011;49084;48.204;16.202;2023-01-08T06:48:54;113.03;;;35.38;;
62990;SDS011;49084;48.204;16.202;2023-01-08T06:51:20;104.75;;;34.63;;
62990;SDS011;49084;48.204;16.202;2023-01-08T06:53:49;150.30;;;36.22;;
62990;SDS011;49084;48.204;16.202;2023-01-08T06:56:14;107.97;;;34.88;;
62990;SDS011;49084;48.204;16.202;2023-01-08T06:58:40;114.00;;;34.70;;
62990;SDS011;49084;48.204;16.202;2023-01-08T07:01:05;101.25;;;35.22;;
62990;SDS011;49084;48.204;16.202;2023-01-08T07:03:31;117.40;;;36.85;;
62990;SDS011;49084;48.204;16.202;2023-01-08T07:05:57;114.65;;;35.90;;
62990;SDS011;49084;48.204;16.202;2023-01-08T07:08:22;129.95;;;36.78;;
62990;SDS011;49084;48.204;16.202;2023-01-08T07:10:48;128.13;;;38.22;;
62990;SDS011;49084;48.204;16.202;2023-01-08T07:13:14;122.63;;;36.90;;
62990;SDS011;49084;48.204;16.202;2023-01-08T07:15:40;110.53;;;38.15;;
62990;SDS011;49084;48.204;16.202;2023-01-08T07:18:07;152.80;;;39.05;;
62990;SDS011;49084;48.204;16.202;2023-01-08T07:23:20;138.00;;;37.08;;
62990;SDS011;49084;48.204;16.202;2023-01-08T07:25:46;125.60;;;36.92;;
62990;SDS011;49084;48.204;16.202;2023-01-08T07:28:11;137.48;;;40.40;;
62990;SDS011;49084;48.204;16.202;2023-01-08T07:30:37;113.75;;;37.25;;
62990;SDS011;49084;48.204;16.202;2023-01-08T07:33:03;120.45;;;36.53;;
62990;SDS011;49084;48.204;16.202;2023-01-08T07:35:29;157.70;;;40.13;;
62990;SDS011;49084;48.204;16.202;2023-01-08T07:37:54;128.75;;;36.17;;
62990;SDS011;49084;48.204;16.202;2023-01-08T07:40:20;129.65;;;36.30;;
62990;SDS011;49084;48.204;16.202;2023-01-08T07:42:46;140.88;;;35.13;;
62990;SDS011;49084;48.204;16.202;2023-01-08T07:45:11;141.60;;;36.45;;
62990;SDS011;49084;48.204;16.202;2023-01-08T07:47:46;139.02;;;36.63;;
62990;SDS011;49084;48.204;16.202;2023-01-08T07:50:12;134.10;;;36.38;;
62990;SDS011;49084;48.204;16.202;2023-01-08T07:52:37;145.48;;;38.13;;
62990;SDS011;49084;48.204;16.202;2023-01-08T07:55:03;134.27;;;37.97;;
62990;SDS011;49084;48.204;16.202;2023-01-08T07:57:29;142.32;;;36.08;;
62990;SDS011;49084;48.204;16.202;2023-01-08T07:59:55;133.55;;;35.92;;
62990;SDS011;49084;48.204;16.202;2023-01-08T08:02:20;126.82;;;35.00;;
62990;SDS011;49084;48.204;16.202;2023-01-08T08:04:46;119.95;;;34.50;;
62990;SDS011;49084;48.204;16.202;2023-01-08T08:07:11;120.70;;;33.70;;
62990;SDS011;49084;48.204;16.202;2023-01-08T08:09:37;120.75;;;34.20;;
62990;SDS011;49084;48.204;16.202;2023-01-08T08:12:03;114.55;;;33.17;;
62990;SDS011;49084;48.204;16.202;2023-01-08T08:14:29;105.97;;;33.13;;
62990;SDS011;49084;48.204;16.202;2023-01-08T08:16:54;130.80;;;31.80;;
62990;SDS011;49084;48.204;16.202;2023-01-08T08:19:20;120.03;;;32.92;;
62990;SDS011;49084;48.204;16.202;2023-01-08T08:21:45;116.80;;;31.42;;
62990;SDS011;49084;48.204;16.202;2023-01-08T08:24:11;108.38;;;33.97;;
62990;SDS011;49084;48.204;16.202;2023-01-08T08:26:37;138.48;;;32.45;;
62990;SDS011;49084;48.204;16.202;2023-01-08T08:29:02;112.18;;;33.08;;
62990;SDS011;49084;48.204;16.202;2023-01-08T08:31:28;105.70;;;32.60;;
62990;SDS011;49084;48.204;16.202;2023-01-08T08:33:54;112.03;;;32.72;;
62990;SDS011;49084;48.204;16.202;2023-01-08T08:36:19;99.65;;;32.35;;
62990;SDS011;49084;48.204;16.202;2023-01-08T08:38:45;120.22;;;31.15;;
62990;SDS011;49084;48.204;16.202;2023-01-08T08:41:12;101.30;;;31.17;;
62990;SDS011;49084;48.204;16.202;2023-01-08T08:43:37;114.07;;;32.08;;
62990;SDS011;49084;48.204;16.202;2023-01-08T08:46:03;118.90;;;29.40;;
62990;SDS011;49084;48.204;16.202;2023-01-08T08:48:29;106.32;;;31.08;;
62990;SDS011;49084;48.204;16.202;2023-01-08T08:50:54;92.90;;;30.85;;
62990;SDS011;49084;48.204;16.202;2023-01-08T08:53:20;122.57;;;32.50;;
62990;SDS011;49084;48.204;16.202;2023-01-08T08:55:46;89.93;;;29.00;;
62990;SDS011;49084;48.204;16.202;2023-01-08T08:58:12;105.47;;;29.50;;
62990;SDS011;49084;48.204;16.202;2023-01-08T09:00:38;107.28;;;29.10;;
62990;SDS011;49084;48.204;16.202;2023-01-08T09:03:04;101.35;;;28.38;;
62990;SDS011;49084;48.204;16.202;2023-01-08T09:05:33;91.28;;;27.48;;
62990;SDS011;49084;48.204;16.202;2023-01-08T09:08:00;90.60;;;27.90;;
62990;SDS011;49084;48.204;16.202;2023-01-08T09:10:26;127.82;;;28.00;;
62990;SDS011;49084;48.204;16.202;2023-01-08T09:12:52;88.03;;;25.30;;
62990;SDS011;49084;48.204;16.202;2023-01-08T09:15:18;89.72;;;26.23;;
62990;SDS011;49084;48.204;16.202;2023-01-08T09:17:45;112.60;;;26.08;;
62990;SDS011;49084;48.204;16.202;2023-01-08T09:20:16;85.10;;;26.92;;
62990;SDS011;49084;48.204;16.202;2023-01-08T09:22:41;95.15;;;27.65;;
62990;SDS011;49084;48.204;16.202;2023-01-08T09:25:07;101.18;;;26.27;;
62990;SDS011;49084;48.204;16.202;2023-01-08T09:27:33;108.20;;;27.30;;
62990;SDS011;49084;48.204;16.202;2023-01-08T09:29:58;95.47;;;25.48;;
62990;SDS011;49084;48.204;16.202;2023-01-08T09:32:24;80.75;;;25.65;;
62990;SDS011;49084;48.204;16.202;2023-01-08T09:34:50;81.65;;;26.27;;
62990;SDS011;49084;48.204;16.202;2023-01-08T09:37:15;85.43;;;26.40;;
62990;SDS011;49084;48.204;16.202;2023-01-08T09:39:41;99.93;;;26.63;;
62990;SDS011;49084;48.204;16.202;2023-01-08T09:42:06;83.20;;;25.25;;
62990;SDS011;49084;48.204;16.202;2023-01-08T09:44:39;87.88;;;24.42;;
62990;SDS011;49084;48.204;16.202;2023-01-08T09:47:29;103.47;;;24.38;;
62990;SDS011;49084;48.204;16.202;2023-01-08T09:49:58;100.45;;;24.77;;
62990;SDS011;49084;48.204;16.202;2023-01-08T09:52:27;84.35;;;25.63;;
62990;SDS011;49084;48.204;16.202;2023-01-08T09:54:55;87.57;;;25.80;;
62990;SDS011;49084;48.204;16.202;2023-01-08T09:57:21;83.13;;;26.52;;
62990;SDS011;49084;48.204;16.202;2023-01-08T09:59:47;83.65;;;25.98;;
62990;SDS011;49084;48.204;16.202;2023-01-08T10:02:18;79.75;;;25.00;;
62990;SDS011;49084;48.204;16.202;2023-01-08T10:04:53;80.97;;;26.13;;
62990;SDS011;49084;48.204;16.202;2023-01-08T10:07:28;102.30;;;23.98;;
62990;SDS011;49084;48.204;16.202;2023-01-08T10:09:58;132.85;;;25.88;;
62990;SDS011;49084;48.204;16.202;2023-01-08T10:12:28;81.30;;;23.58;;
62990;SDS011;49084;48.204;16.202;2023-01-08T10:14:57;91.35;;;24.85;;
62990;SDS011;49084;48.204;16.202;2023-01-08T10:17:44;92.60;;;23.90;;
62990;SDS011;49084;48.204;16.202;2023-01-08T10:20:18;84.32;;;24.23;;
62990;SDS011;49084;48.204;16.202;2023-01-08T10:22:45;105.43;;;25.70;;
62990;SDS011;49084;48.204;16.202;2023-01-08T10:25:17;91.28;;;24.23;;
62990;SDS011;49084;48.204;16.202;2023-01-08T10:30:15;84.47;;;23.23;;
62990;SDS011;49084;48.204;16.202;2023-01-08T10:32:52;83.68;;;24.65;;
62990;SDS011;49084;48.204;16.202;2023-01-08T10:35:21;85.78;;;23.23;;
62990;SDS011;49084;48.204;16.202;2023-01-08T10:37:52;78.18;;;24.48;;
62990;SDS011;49084;48.204;16.202;2023-01-08T10:43:14;70.32;;;23.27;;
62990;SDS011;49084;48.204;16.202;2023-01-08T10:45:54;72.07;;;24.13;;
62990;SDS011;49084;48.204;16.202;2023-01-08T10:48:30;82.38;;;25.27;;
62990;SDS011;49084;48.204;16.202;2023-01-08T10:51:23;78.95;;;25.02;;
62990;SDS011;49084;48.204;16.202;2023-01-08T10:53:54;76.05;;;25.40;;
62990;SDS011;49084;48.204;16.202;2023-01-08T10:56:30;69.00;;;22.35;;
62990;SDS011;49084;48.204;16.202;2023-01-08T10:59:16;69.38;;;23.20;;
62990;SDS011;49084;48.204;16.202;2023-01-08T11:01:45;66.43;;;21.85;;
62990;SDS011;49084;48.204;16.202;2023-01-08T11:04:26;60.28;;;21.65;;
62990;SDS011;49084;48.204;16.202;2023-01-08T11:06:59;67.10;;;22.75;;
62990;SDS011;49084;48.204;16.202;2023-01-08T11:09:27;69.82;;;22.95;;
62990;SDS011;49084;48.204;16.202;2023-01-08T11:11:56;57.60;;;21.52;;
62990;SDS011;49084;48.204;16.202;2023-01-08T11:16:55;61.63;;;21.50;;
62990;SDS011;49084;48.204;16.202;2023-01-08T11:19:23;65.70;;;22.85;;
62990;SDS011;49084;48.204;16.202;2023-01-08T11:24:25;69.43;;;23.05;;
62990;SDS011;49084;48.204;16.202;2023-01-08T11:37:30;64.55;;;22.60;;
62990;SDS011;49084;48.204;16.202;2023-01-08T11:40:15;59.22;;;23.65;;
62990;SDS011;49084;48.204;16.202;2023-01-08T11:56:53;58.20;;;23.05;;
62990;SDS011;49084;48.204;16.202;2023-01-08T12:21:29;48.08;;;19.08;;
62990;SDS011;49084;48.204;16.202;2023-01-08T12:26:57;52.53;;;20.02;;
62990;SDS011;49084;48.204;16.202;2023-01-08T12:32:34;48.28;;;19.88;;
62990;SDS011;49084;48.204;16.202;2023-01-08T12:35:22;53.30;;;20.90;;
62990;SDS011;49084;48.204;16.202;2023-01-08T12:40:36;48.22;;;20.80;;
62990;SDS011;49084;48.204;16.202;2023-01-08T12:43:11;45.63;;;19.50;;
62990;SDS011;49084;48.204;16.202;2023-01-08T12:45:45;44.38;;;19.20;;
62990;SDS011;49084;48.204;16.202;2023-01-08T12:48:15;42.08;;;18.35;;
62990;SDS011;49084;48.204;16.202;2023-01-08T12:50:46;35.50;;;14.93;;
62990;SDS011;49084;48.204;16.202;2023-01-08T12:53:25;54.05;;;19.33;;
62990;SDS011;49084;48.204;16.202;2023-01-08T13:04:13;39.83;;;17.00;;
62990;SDS011;49084;48.204;16.202;2023-01-08T13:07:41;48.38;;;17.83;;
62990;SDS011;49084;48.204;16.202;2023-01-08T13:09:42;44.80;;;18.63;;
62990;SDS011;49084;48.204;16.202;2023-01-08T13:12:08;44.17;;;18.80;;
62990;SDS011;49084;48.204;16.202;2023-01-08T13:14:42;38.88;;;16.67;;
62990;SDS011;49084;48.204;16.202;2023-01-08T13:17:16;39.80;;;16.65;;
62990;SDS011;49084;48.204;16.202;2023-01-08T13:19:50;42.47;;;19.05;;
62990;SDS011;49084;48.204;16.202;2023-01-08T13:22:28;41.60;;;18.27;;
62990;SDS011;49084;48.204;16.202;2023-01-08T13:27:41;43.22;;;18.55;;
62990;SDS011;49084;48.204;16.202;2023-01-08T13:35:47;37.50;;;16.50;;
62990;SDS011;49084;48.204;16.202;2023-01-08T13:38:13;37.53;;;17.80;;
62990;SDS011;49084;48.204;16.202;2023-01-08T13:48:26;37.20;;;17.52;;
62990;SDS011;49084;48.204;16.202;2023-01-08T13:50:54;35.88;;;17.40;;
62990;SDS011;49084;48.204;16.202;2023-01-08T13:53:20;37.72;;;17.63;;
62990;SDS011;49084;48.204;16.202;2023-01-08T13:56:09;46.88;;;19.00;;
62990;SDS011;49084;48.204;16.202;2023-01-08T13:58:39;41.40;;;19.27;;
62990;SDS011;49084;48.204;16.202;2023-01-08T14:01:10;37.67;;;18.15;;
62990;SDS011;49084;48.204;16.202;2023-01-08T14:03:37;37.78;;;17.10;;
62990;SDS011;49084;48.204;16.202;2023-01-08T14:06:22;35.63;;;17.45;;
62990;SDS011;49084;48.204;16.202;2023-01-08T14:11:32;33.30;;;15.95;;
62990;SDS011;49084;48.204;16.202;2023-01-08T14:14:01;33.22;;;16.58;;
62990;SDS011;49084;48.204;16.202;2023-01-08T14:16:28;32.10;;;14.98;;
62990;SDS011;49084;48.204;16.202;2023-01-08T14:18:54;37.88;;;15.60;;
62990;SDS011;49084;48.204;16.202;2023-01-08T14:21:25;33.95;;;15.60;;
62990;SDS011;49084;48.204;16.202;2023-01-08T14:23:51;30.70;;;15.10;;
62990;SDS011;49084;48.204;16.202;2023-01-08T14:26:31;36.25;;;16.38;;
62990;SDS011;49084;48.204;16.202;2023-01-08T14:29:15;37.13;;;16.10;;
62990;SDS011;49084;48.204;16.202;2023-01-08T14:31:44;33.88;;;17.10;;
62990;SDS011;49084;48.204;16.202;2023-01-08T14:34:11;34.55;;;15.88;;
62990;SDS011;49084;48.204;16.202;2023-01-08T14:36:38;38.10;;;16.98;;
62990;SDS011;49084;48.204;16.202;2023-01-08T14:39:10;38.15;;;16.83;;
62990;SDS011;49084;48.204;16.202;2023-01-08T14:41:36;37.10;;;18.25;;
62990;SDS011;49084;48.204;16.202;2023-01-08T14:44:24;35.38;;;16.23;;
62990;SDS011;49084;48.204;16.202;2023-01-08T14:46:51;36.17;;;16.67;;
62990;SDS011;49084;48.204;16.202;2023-01-08T14:51:49;38.50;;;17.42;;
62990;SDS011;49084;48.204;16.202;2023-01-08T14:54:19;36.78;;;17.67;;
62990;SDS011;49084;48.204;16.202;2023-01-08T14:56:48;33.88;;;16.77;;
62990;SDS011;49084;48.204;16.202;2023-01-08T14:59:18;35.85;;;16.77;;
62990;SDS011;49084;48.204;16.202;2023-01-08T15:01:51;34.92;;;17.05;;
62990;SDS011;49084;48.204;16.202;2023-01-08T15:04:20;35.65;;;18.00;;
62990;SDS011;49084;48.204;16.202;2023-01-08T15:06:47;36.70;;;16.85;;
62990;SDS011;49084;48.204;16.202;2023-01-08T15:09:19;37.08;;;17.08;;
62990;SDS011;49084;48.204;16.202;2023-01-08T15:11:54;36.88;;;17.27;;
62990;SDS011;49084;48.204;16.202;2023-01-08T15:14:26;37.25;;;16.85;;
62990;SDS011;49084;48.204;16.202;2023-01-08T15:16:53;38.70;;;17.83;;
62990;SDS011;49084;48.204;16.202;2023-01-08T15:21:53;33.10;;;16.75;;
62990;SDS011;49084;48.204;16.202;2023-01-08T15:26:57;35.97;;;15.65;;
62990;SDS011;49084;48.204;16.202;2023-01-08T15:29:27;36.90;;;16.38;;
62990;SDS011;49084;48.204;16.202;2023-01-08T15:32:06;39.33;;;17.05;;
62990;SDS011;49084;48.204;16.202;2023-01-08T15:34:32;39.20;;;16.48;;
62990;SDS011;49084;48.204;16.202;2023-01-08T15:36:58;37.67;;;16.45;;
62990;SDS011;49084;48.204;16.202;2023-01-08T15:39:23;38.90;;;16.00;;
62990;SDS011;49084;48.204;16.202;2023-01-08T15:41:49;33.15;;;16.25;;
62990;SDS011;49084;48.204;16.202;2023-01-08T15:44:33;36.70;;;16.30;;
62990;SDS011;49084;48.204;16.202;2023-01-08T15:46:59;41.53;;;17.15;;
62990;SDS011;49084;48.204;16.202;2023-01-08T15:49:24;40.53;;;16.77;;
62990;SDS011;49084;48.204;16.202;2023-01-08T15:51:50;35.33;;;17.00;;
62990;SDS011;49084;48.204;16.202;2023-01-08T15:54:16;37.90;;;17.25;;
62990;SDS011;49084;48.204;16.202;2023-01-08T15:56:45;44.45;;;17.05;;
62990;SDS011;49084;48.204;16.202;2023-01-08T15:59:11;42.75;;;18.85;;
62990;SDS011;49084;48.204;16.202;2023-01-08T16:01:36;39.50;;;16.77;;
62990;SDS011;49084;48.204;16.202;2023-01-08T16:04:02;39.28;;;17.98;;
62990;SDS011;49084;48.204;16.202;2023-01-08T16:06:28;40.65;;;16.88;;
62990;SDS011;49084;48.204;16.202;2023-01-08T16:08:53;45.45;;;18.50;;
62990;SDS011;49084;48.204;16.202;2023-01-08T16:11:23;43.17;;;18.42;;
62990;SDS011;49084;48.204;16.202;2023-01-08T16:13:50;37.80;;;16.52;;
62990;SDS011;49084;48.204;16.202;2023-01-08T16:16:15;39.33;;;16.88;;
62990;SDS011;49084;48.204;16.202;2023-01-08T16:18:42;34.97;;;16.10;;
62990;SDS011;49084;48.204;16.202;2023-01-08T16:21:08;36.03;;;17.00;;
62990;SDS011;49084;48.204;16.202;2023-01-08T16:23:38;37.42;;;16.85;;
62990;SDS011;49084;48.204;16.202;2023-01-08T16:26:12;32.22;;;15.45;;
62990;SDS011;49084;48.204;16.202;2023-01-08T16:28:38;31.70;;;15.20;;
62990;SDS011;49084;48.204;16.202;2023-01-08T16:31:05;34.83;;;15.93;;
62990;SDS011;49084;48.204;16.202;2023-01-08T16:33:31;37.05;;;16.20;;
62990;SDS011;49084;48.204;16.202;2023-01-08T16:36:01;35.75;;;15.90;;
62990;SDS011;49084;48.204;16.202;2023-01-08T16:38:30;30.77;;;15.55;;
62990;SDS011;49084;48.204;16.202;2023-01-08T16:40:56;27.55;;;12.90;;
62990;SDS011;49084;48.204;16.202;2023-01-08T16:43:24;29.27;;;13.98;;
62990;SDS011;49084;48.204;16.202;2023-01-08T16:45:51;29.85;;;15.05;;
62990;SDS011;49084;48.204;16.202;2023-01-08T16:48:18;28.48;;;14.30;;
62990;SDS011;49084;48.204;16.202;2023-01-08T16:50:45;26.27;;;13.75;;
62990;SDS011;49084;48.204;16.202;2023-01-08T16:53:11;24.95;;;13.13;;
62990;SDS011;49084;48.204;16.202;2023-01-08T16:55:39;29.13;;;14.32;;
62990;SDS011;49084;48.204;16.202;2023-01-08T16:58:05;30.08;;;13.57;;
62990;SDS011;49084;48.204;16.202;2023-01-08T17:00:32;32.47;;;14.50;;
62990;SDS011;49084;48.204;16.202;2023-01-08T17:02:59;31.70;;;14.60;;
62990;SDS011;49084;48.204;16.202;2023-01-08T17:05:26;28.88;;;14.50;;
62990;SDS011;49084;48.204;16.202;2023-01-08T17:07:52;30.73;;;14.52;;
62990;SDS011;49084;48.204;16.202;2023-01-08T17:10:18;23.50;;;12.38;;